Time;durP1;ratioP1;P1;durP2;ratioP2;P2;SDS_P1;SDS_P2;PMS_P1;PMS_P2;Temp;Humidity;BMP_temperature;BMP_pressure;BME280_temperature;BME280_humidity;BME280_pressure;Samples;Min_cycle;Max_cycle;Signal;HPM_P1;HPM_P2
2023/10/13 00:02:01;;;;;;;9.00;3.92;;;;;;;19.39;59.76;99750.97;4359849;32;33351;-72
2023/10/13 00:04:31;;;;;;;11.38;4.10;;;;;;;19.49;59.43;99757.09;4358763;32;33992;-71
2023/10/13 00:07:01;;;;;;;8.30;5.28;;;;;;;19.32;59.91;99758.94;4370571;32;34326;-71
2023/10/13 00:09:33;;;;;;;12.13;5.03;;;;;;;19.34;60.17;99766.94;4373580;32;34110;-71
2023/10/13 00:12:00;;;;;;;8.32;4.60;;;;;;;19.32;60.35;99777.94;4366034;32;34450;-69
2023/10/13 00:14:34;;;;;;;12.40;5.53;;;;;;;19.22;60.83;99780.00;4371288;32;34181;-66
2023/10/13 00:17:15;;;;;;;12.25;6.78;;;;;;;18.95;61.78;99778.47;4361462;32;33848;-69
2023/10/13 00:20:11;;;;;;;10.27;3.65;;;;;;;19.23;60.79;99779.84;4373509;32;35254;-69
2023/10/13 00:22:31;;;;;;;8.77;4.03;;;;;;;19.32;60.59;99786.09;4364109;32;34038;-69
2023/10/13 00:24:58;;;;;;;6.72;4.32;;;;;;;19.24;60.74;99770.66;4372927;32;34720;-71
2023/10/13 00:27:29;;;;;;;13.15;4.75;;;;;;;19.36;60.36;99768.47;4370574;32;34271;-71
2023/10/13 00:32:55;;;;;;;6.57;3.65;;;;;;;19.30;60.64;99767.28;4370569;32;34181;-70
2023/10/13 00:35:25;;;;;;;13.88;5.40;;;;;;;19.41;60.18;99760.62;4366411;32;33973;-70
2023/10/13 00:37:55;;;;;;;8.13;4.22;;;;;;;19.23;60.50;99763.56;4355653;32;33536;-72
2023/10/13 00:40:44;;;;;;;8.77;5.05;;;;;;;19.19;60.34;99764.03;4365567;32;33999;-71
2023/10/13 00:45:57;;;;;;;6.97;3.90;;;;;;;19.28;60.27;99763.03;4367187;32;34540;-71
2023/10/13 00:48:33;;;;;;;10.02;4.12;;;;;;;19.25;60.22;99775.06;4373767;32;33958;-71
2023/10/13 00:51:17;;;;;;;16.30;6.22;;;;;;;19.03;60.58;99764.87;4355901;32;33703;-71
2023/10/13 00:53:47;;;;;;;10.38;6.20;;;;;;;18.95;60.72;99765.75;4360566;32;33835;-73
2023/10/13 00:56:19;;;;;;;11.15;5.28;;;;;;;18.48;62.33;99768.16;4366225;32;33161;-70
2023/10/13 00:58:46;;;;;;;10.25;4.93;;;;;;;18.76;61.23;99763.34;4371421;32;33737;-70
2023/10/13 01:01:22;;;;;;;13.35;4.32;;;;;;;18.79;61.12;99763.84;4360966;32;33885;-71
2023/10/13 01:04:02;;;;;;;7.57;4.57;;;;;;;18.58;61.86;99758.00;4372412;32;33960;-71
2023/10/13 01:06:30;;;;;;;7.20;4.00;;;;;;;18.58;62.18;99760.72;4371902;32;34169;-70
2023/10/13 01:09:10;;;;;;;7.60;4.05;;;;;;;18.53;62.40;99747.69;4375072;32;34739;-70
2023/10/13 01:11:42;;;;;;;6.72;3.58;;;;;;;18.71;62.11;99749.41;4369585;32;34052;-70
2023/10/13 01:14:12;;;;;;;9.27;4.60;;;;;;;18.99;61.24;99750.81;4373428;32;33948;-70
2023/10/13 01:16:45;;;;;;;12.75;5.22;;;;;;;19.14;60.69;99750.16;4371304;32;34382;-71
2023/10/13 01:19:19;;;;;;;13.07;4.73;;;;;;;19.13;60.84;99752.00;4366173;32;33700;-71
2023/10/13 01:21:47;;;;;;;7.93;4.45;;;;;;;19.26;60.68;99755.06;4369779;32;33788;-71
2023/10/13 01:24:20;;;;;;;11.00;5.22;;;;;;;19.29;60.64;99752.03;4366116;32;33852;-70
2023/10/13 01:26:52;;;;;;;11.15;4.87;;;;;;;19.35;60.39;99750.47;4363825;32;33459;-70
2023/10/13 01:29:26;;;;;;;10.40;5.07;;;;;;;19.22;60.90;99748.28;4364764;32;34697;-70
2023/10/13 01:31:53;;;;;;;14.65;4.80;;;;;;;19.23;60.87;99747.28;4365168;32;34145;-70
2023/10/13 01:34:24;;;;;;;11.77;4.55;;;;;;;19.09;61.27;99750.66;4367528;32;33429;-71
2023/10/13 01:36:53;;;;;;;7.65;4.07;;;;;;;19.08;60.96;99748.97;4371696;32;33358;-71
2023/10/13 01:39:28;;;;;;;12.37;5.40;;;;;;;19.07;61.12;99750.00;4370147;32;33559;-72
2023/10/13 01:41:56;;;;;;;10.10;5.10;;;;;;;18.84;61.70;99749.78;4368391;32;34161;-69
2023/10/13 01:44:32;;;;;;;8.35;4.00;;;;;;;18.88;61.38;99748.44;4369159;32;33560;-69
2023/10/13 01:47:07;;;;;;;10.38;4.12;;;;;;;18.89;61.03;99749.28;4372741;32;33007;-69
2023/10/13 01:49:47;;;;;;;12.35;5.55;;;;;;;19.07;60.35;99750.00;4374223;32;34035;-69
2023/10/13 01:52:15;;;;;;;9.50;4.57;;;;;;;19.09;60.28;99753.38;4368215;32;33783;-69
2023/10/13 01:54:50;;;;;;;9.88;5.37;;;;;;;19.13;60.32;99760.13;4364508;32;33710;-69
2023/10/13 01:57:18;;;;;;;13.98;4.00;;;;;;;18.99;60.88;99758.97;4366905;32;31756;-69
2023/10/13 01:59:47;;;;;;;8.15;4.57;;;;;;;19.13;60.56;99762.84;4372279;32;33492;-69
2023/10/13 02:02:28;;;;;;;8.82;4.68;;;;;;;18.89;61.39;99762.84;4373264;32;34970;-69
2023/10/13 02:05:02;;;;;;;15.90;8.32;;;;;;;19.14;60.77;99763.72;4369822;32;33931;-69
2023/10/13 02:07:34;;;;;;;16.80;9.02;;;;;;;19.02;61.06;99763.19;4370861;32;33360;-69
2023/10/13 02:10:06;;;;;;;6.80;4.62;;;;;;;18.97;61.26;99760.13;4364321;32;33513;-69
2023/10/13 02:12:37;;;;;;;14.35;9.02;;;;;;;19.09;61.07;99759.63;4368107;32;33803;-69
2023/10/13 02:15:05;;;;;;;8.88;3.85;;;;;;;19.05;61.12;99752.03;4368538;32;33599;-69
2023/10/13 02:17:41;;;;;;;15.00;3.70;;;;;;;19.15;60.95;99760.00;4363650;32;34072;-69
2023/10/13 02:20:14;;;;;;;13.13;4.70;;;;;;;19.23;60.64;99760.84;4361659;32;33771;-69
2023/10/13 02:22:51;;;;;;;9.40;4.95;;;;;;;19.19;60.80;99758.63;4369496;32;34912;-69
2023/10/13 02:28:14;;;;;;;9.68;4.65;;;;;;;19.54;59.49;99751.97;4344591;32;35174;-69
2023/10/13 02:30:48;;;;;;;10.07;4.72;;;;;;;19.57;59.58;99750.78;4339606;32;33994;-66
2023/10/13 02:33:29;;;;;;;15.25;7.15;;;;;;;19.63;59.48;99753.66;4335915;32;34342;-74
2023/10/13 02:36:04;;;;;;;11.80;4.70;;;;;;;19.57;59.65;99762.50;4349448;32;33829;-68
2023/10/13 02:41:25;;;;;;;10.38;4.57;;;;;;;19.78;59.37;99761.97;4354900;32;34246;-68
2023/10/13 02:43:54;;;;;;;13.82;4.20;;;;;;;19.76;59.31;99766.72;4351336;32;33467;-68
2023/10/13 02:46:23;;;;;;;7.15;3.90;;;;;;;19.67;59.64;99765.88;4358847;32;34646;-69
2023/10/13 02:48:54;;;;;;;21.83;5.05;;;;;;;19.77;59.47;99769.28;4360698;32;34141;-68
2023/10/13 02:51:27;;;;;;;8.27;5.15;;;;;;;19.85;59.03;99773.00;4356410;32;33912;-69
2023/10/13 02:54:02;;;;;;;7.85;4.90;;;;;;;19.89;58.91;99768.91;4368210;32;33675;-69
2023/10/13 02:56:30;;;;;;;8.38;4.15;;;;;;;19.89;58.72;99783.31;4365411;32;34872;-68
2023/10/13 02:58:57;;;;;;;10.77;5.53;;;;;;;19.81;59.05;99786.09;4355252;32;34580;-68
2023/10/13 03:01:28;;;;;;;13.50;5.25;;;;;;;19.91;58.94;99784.00;4356891;32;33866;-68
2023/10/13 03:03:58;;;;;;;11.93;5.68;;;;;;;19.86;59.37;99788.25;4358651;32;35574;-68
2023/10/13 03:06:33;;;;;;;8.02;4.62;;;;;;;19.70;60.01;99794.56;4367285;32;32606;-68
2023/10/13 03:09:17;;;;;;;11.85;5.07;;;;;;;19.56;60.39;99793.38;4378608;32;33291;-68
2023/10/13 03:11:50;;;;;;;6.75;4.05;;;;;;;19.63;60.43;99796.25;4375045;32;34609;-68
2023/10/13 03:14:39;;;;;;;17.27;8.25;;;;;;;19.65;60.34;99781.53;4367416;32;33611;-68
2023/10/13 03:17:14;;;;;;;11.07;5.60;;;;;;;19.67;60.23;99784.91;4369662;32;33316;-71
2023/10/13 03:19:49;;;;;;;10.52;4.55;;;;;;;19.42;61.22;99778.66;4371936;32;33544;-71
2023/10/13 03:22:18;;;;;;;11.38;5.53;;;;;;;19.53;60.66;99783.72;4365257;32;35050;-71
2023/10/13 03:24:46;;;;;;;7.25;3.78;;;;;;;19.45;60.80;99774.72;4374260;32;33677;-71
2023/10/13 03:27:17;;;;;;;8.98;5.07;;;;;;;19.28;61.49;99769.31;4361977;32;35016;-70
2023/10/13 03:29:54;;;;;;;11.57;5.03;;;;;;;19.40;61.37;99763.53;4363166;32;34228;-71
2023/10/13 03:32:26;;;;;;;11.32;5.72;;;;;;;19.46;61.35;99760.16;4380683;32;33890;-70
2023/10/13 03:35:10;;;;;;;13.00;5.47;;;;;;;19.53;61.22;99762.00;4365829;32;35258;-70
2023/10/13 03:37:38;;;;;;;15.27;5.32;;;;;;;19.44;61.64;99756.75;4365358;32;33794;-68
2023/10/13 03:43:10;;;;;;;8.45;4.80;;;;;;;19.48;61.97;99741.81;4372345;32;34665;-68
2023/10/13 03:45:41;;;;;;;11.38;5.90;;;;;;;19.59;61.57;99736.03;4361275;32;35113;-68
2023/10/13 03:51:02;;;;;;;8.52;4.35;;;;;;;19.86;60.93;99729.34;4363437;32;34138;-68
2023/10/13 03:53:33;;;;;;;10.20;5.47;;;;;;;19.95;60.56;99739.16;4372313;32;33864;-68
2023/10/13 03:56:11;;;;;;;9.20;4.53;;;;;;;19.99;60.47;99737.78;4375396;32;35542;-69
2023/10/13 03:58:45;;;;;;;12.20;5.70;;;;;;;20.06;60.39;99732.50;4375230;32;33786;-69
2023/10/13 04:01:17;;;;;;;7.90;4.75;;;;;;;20.09;60.37;99726.72;4350980;32;32957;-68
2023/10/13 04:03:57;;;;;;;13.07;4.72;;;;;;;20.12;60.37;99722.81;4376875;32;34235;-68
2023/10/13 04:15:14;;;;;;;10.82;6.03;;;;;;;20.14;60.25;99713.47;4366415;32;33477;-68
2023/10/13 04:17:46;;;;;;;13.85;7.72;;;;;;;19.38;62.21;99717.56;4373416;32;33997;-69
2023/10/13 04:20:27;;;;;;;13.43;6.83;;;;;;;19.85;60.59;99718.69;4373921;32;34368;-68
2023/10/13 04:28:15;;;;;;;10.43;4.35;;;;;;;20.05;59.68;99722.66;4375233;32;33931;-68
2023/10/13 04:36:36;;;;;;;8.27;5.32;;;;;;;20.10;59.76;99730.31;4375958;32;34683;-68
2023/10/13 04:41:43;;;;;;;10.20;5.18;;;;;;;20.05;59.49;99717.22;4371055;32;34789;-70
2023/10/13 04:57:25;;;;;;;10.00;5.45;;;;;;;20.12;59.47;99737.22;4374838;32;33424;-67
2023/10/13 05:49:49;;;;;;;11.65;5.70;;;;;;;20.17;60.23;99815.53;4316725;33;34150;-70
2023/10/13 06:28:40;;;;;;;5.87;3.75;;;;;;;20.13;60.37;99811.47;4310873;33;32011;-70
2023/10/13 06:28:43;;;;;;;5.50;3.33;;;;;;;20.03;61.78;99849.66;4362055;32;34315;-70
2023/10/13 06:31:21;;;;;;;13.73;5.65;;;;;;;19.92;62.19;99848.16;4367029;32;33842;-71
2023/10/13 06:33:49;;;;;;;10.50;5.32;;;;;;;19.72;62.91;99855.84;4372909;32;33157;-70
2023/10/13 06:36:17;;;;;;;14.75;11.00;;;;;;;19.94;62.09;99857.00;4362809;32;34421;-71
2023/10/13 06:38:54;;;;;;;13.77;6.62;;;;;;;19.73;62.60;99865.69;4369071;32;33797;-70
2023/10/13 06:41:32;;;;;;;11.30;4.60;;;;;;;19.80;62.72;99860.41;4362743;32;34920;-71
2023/10/13 06:44:01;;;;;;;8.75;4.90;;;;;;;19.67;63.20;99855.50;4373280;32;34156;-70
2023/10/13 06:46:33;;;;;;;10.98;5.43;;;;;;;20.04;61.87;99862.25;4375654;32;33446;-70
2023/10/13 06:49:02;;;;;;;18.15;6.00;;;;;;;20.04;61.92;99867.69;4374428;32;33621;-70
2023/10/13 06:51:37;;;;;;;15.27;4.93;;;;;;;19.62;63.63;99870.59;4369576;32;33502;-70
2023/10/13 06:54:11;;;;;;;;;;;;;;;19.93;62.53;99865.31;4374515;32;33435;-70
2023/10/13 06:56:41;;;;;;;14.13;6.37;;;;;;;20.18;61.65;99872.41;4373301;32;34268;-70
2023/10/13 06:59:10;;;;;;;8.77;4.75;;;;;;;20.27;61.39;99877.81;4367801;32;33767;-70
2023/10/13 07:01:40;;;;;;;10.75;6.00;;;;;;;20.35;61.21;99884.09;4372214;32;33663;-70
2023/10/13 07:04:15;;;;;;;17.25;6.60;;;;;;;20.40;61.10;99886.28;4365623;32;34625;-71
2023/10/13 07:06:54;;;;;;;14.75;7.10;;;;;;;20.40;61.20;99886.28;4367072;32;33441;-70
2023/10/13 07:09:58;;;;;;;13.80;5.90;;;;;;;20.45;61.18;99884.75;4372105;32;34158;-70
2023/10/13 07:12:16;;;;;;;10.45;5.15;;;;;;;20.42;61.21;99887.81;4372512;32;34134;-70
2023/10/13 07:15:27;;;;;;;9.48;4.40;;;;;;;20.46;60.95;99880.13;4363758;32;32948;-70
2023/10/13 07:17:44;;;;;;;8.68;4.72;;;;;;;20.42;61.08;99884.25;4369582;32;33377;-70
2023/10/13 07:20:16;;;;;;;12.73;6.65;;;;;;;20.37;61.37;99886.63;4372048;32;34214;-70
2023/10/13 07:22:57;;;;;;;12.35;6.28;;;;;;;20.51;60.88;99885.03;4374880;32;32636;-71
2023/10/13 07:25:26;;;;;;;10.93;5.68;;;;;;;20.58;60.75;99895.09;4375054;32;34478;-70
2023/10/13 07:27:56;;;;;;;12.05;5.53;;;;;;;20.67;60.65;99895.88;4373935;32;33746;-70
2023/10/13 07:30:30;;;;;;;13.48;6.30;;;;;;;20.53;61.11;99891.19;4376230;32;34236;-70
2023/10/13 07:32:59;;;;;;;11.57;6.80;;;;;;;20.66;60.85;99876.00;4373771;32;33256;-70
2023/10/13 07:35:31;;;;;;;9.55;5.12;;;;;;;20.73;60.63;99888.91;4364804;32;33261;-70
2023/10/13 07:38:00;;;;;;;7.62;4.55;;;;;;;20.70;60.63;99890.09;4369459;32;35014;-70
2023/10/13 07:43:09;;;;;;;12.60;6.12;;;;;;;20.73;61.10;99897.06;4368522;32;34546;-70
2023/10/13 07:45:39;;;;;;;9.05;5.43;;;;;;;20.69;61.12;99896.56;4366829;32;34537;-70
2023/10/13 07:48:12;;;;;;;10.40;5.75;;;;;;;20.81;61.02;99897.88;4374650;32;33488;-70
2023/10/13 07:50:40;;;;;;;8.48;5.28;;;;;;;20.97;60.62;99888.78;4373645;32;34798;-70
2023/10/13 07:53:22;;;;;;;8.13;5.32;;;;;;;21.05;60.32;99890.59;4367342;32;33755;-70
2023/10/13 07:55:55;;;;;;;11.50;6.50;;;;;;;21.11;60.14;99888.00;4366272;32;33221;-70
2023/10/13 07:58:27;;;;;;;10.32;5.62;;;;;;;21.15;59.96;99886.66;4364330;32;33681;-70
2023/10/13 08:01:06;;;;;;;13.27;6.45;;;;;;;21.17;59.70;99886.44;4372557;32;34690;-70
2023/10/13 08:03:43;;;;;;;18.12;6.22;;;;;;;21.17;59.65;99887.28;4368882;32;33982;-70
2023/10/13 08:08:50;;;;;;;9.40;5.90;;;;;;;21.25;59.73;99885.53;4374650;32;33502;-70
2023/10/13 08:13:58;;;;;;;12.37;5.70;;;;;;;21.45;59.57;99881.38;4369119;32;34161;-70
2023/10/13 08:16:45;;;;;;;13.18;7.32;;;;;;;21.53;59.44;99883.16;4370954;32;33719;-71
2023/10/13 08:19:15;;;;;;;11.15;6.62;;;;;;;21.62;59.26;99876.63;4365673;32;34738;-70
2023/10/13 08:21:49;;;;;;;14.40;6.20;;;;;;;21.43;59.83;99871.69;4370249;32;34979;-70
2023/10/13 08:24:24;;;;;;;11.30;6.33;;;;;;;21.64;59.29;99877.31;4366530;32;35002;-71
2023/10/13 08:48:14;;;;;;;15.93;5.90;;;;;;;22.18;57.20;99892.66;4359989;32;33276;-70
2023/10/13 08:53:31;;;;;;;15.43;5.90;;;;;;;22.24;56.52;99894.63;4355724;32;33771;-69
2023/10/13 08:59:09;;;;;;;18.33;7.53;;;;;;;22.05;57.42;99902.31;4340065;32;33348;-71
2023/10/13 09:07:00;;;;;;;12.98;6.80;;;;;;;22.21;57.54;99895.84;4349269;32;33908;-71
2023/10/13 09:09:34;;;;;;;10.15;5.87;;;;;;;22.21;57.43;99906.75;4349662;32;33150;-70
2023/10/13 09:12:09;;;;;;;12.20;5.53;;;;;;;22.14;57.00;99897.59;4339937;32;33459;-70
2023/10/13 09:14:42;;;;;;;11.77;6.20;;;;;;;22.17;56.96;99894.53;4345841;32;33778;-70
2023/10/13 09:17:22;;;;;;;10.25;5.57;;;;;;;22.25;56.55;99886.28;4336444;32;34884;-70
2023/10/13 09:19:56;;;;;;;15.55;8.55;;;;;;;22.23;56.84;99893.78;4335043;32;34584;-70
2023/10/13 09:22:38;;;;;;;16.87;8.80;;;;;;;22.10;57.94;99905.31;4332248;32;32846;-70
2023/10/13 09:25:05;;;;;;;15.73;6.07;;;;;;;22.31;58.01;99892.84;4329216;33;34102;-70
2023/10/13 09:27:37;;;;;;;12.90;6.43;;;;;;;22.40;58.09;99889.00;4343238;33;34470;-74
2023/10/13 09:30:18;;;;;;;9.63;5.80;;;;;;;22.59;57.47;99889.47;4338576;32;33701;-74
2023/10/13 09:32:48;;;;;;;14.52;8.63;;;;;;;22.66;57.01;99887.69;4348150;32;33672;-74
2023/10/13 09:35:25;;;;;;;19.77;10.27;;;;;;;22.55;57.53;99891.75;4366962;32;33963;-71
2023/10/13 09:37:56;;;;;;;14.43;7.87;;;;;;;22.61;57.76;99901.06;4337096;32;34556;-71
2023/10/13 09:40:34;;;;;;;15.25;7.60;;;;;;;22.60;57.46;99902.06;4335103;32;33014;-72
2023/10/13 09:43:07;;;;;;;16.67;7.87;;;;;;;22.51;57.21;99898.62;4348845;32;34680;-72
2023/10/13 09:45:43;;;;;;;20.95;9.90;;;;;;;22.81;56.73;99893.13;4349586;32;33941;-71
2023/10/13 09:48:16;;;;;;;16.60;9.48;;;;;;;22.80;57.19;99895.03;4350949;32;34139;-72
2023/10/13 09:50:48;;;;;;;22.55;12.68;;;;;;;22.85;56.75;99889.81;4348878;32;33302;-71
2023/10/13 09:53:18;;;;;;;22.70;10.88;;;;;;;22.34;58.37;99892.47;4342632;32;34475;-71
2023/10/13 09:55:49;;;;;;;17.50;9.60;;;;;;;22.84;57.06;99896.31;4322926;32;34289;-72
2023/10/13 09:58:17;;;;;;;19.90;8.88;;;;;;;22.95;57.20;99887.69;4334011;33;33832;-72
2023/10/13 10:01:06;;;;;;;25.12;10.98;;;;;;;22.89;57.10;99893.87;4343029;32;33637;-72
2023/10/13 10:03:52;;;;;;;18.50;11.63;;;;;;;22.38;58.70;99887.53;4336825;32;33751;-72
2023/10/13 10:06:28;;;;;;;21.87;11.93;;;;;;;23.10;57.18;99879.44;4350069;32;35062;-71
2023/10/13 10:09:12;;;;;;;25.48;11.52;;;;;;;23.10;57.47;99879.44;4356135;32;33646;-71
2023/10/13 10:12:06;;;;;;;27.65;12.95;;;;;;;23.43;56.85;99874.31;4366152;32;34261;-71
2023/10/13 10:15:03;;;;;;;22.42;12.70;;;;;;;23.27;56.49;99869.13;4367223;32;34160;-71
2023/10/13 10:17:39;;;;;;;22.33;12.32;;;;;;;23.53;55.82;99873.16;4356407;32;33850;-71
2023/10/13 10:20:22;;;;;;;22.08;11.85;;;;;;;23.79;55.67;99865.25;4367707;32;33929;-71
2023/10/13 10:23:00;;;;;;;22.65;12.00;;;;;;;23.80;55.09;99866.09;4355904;32;33270;-73
2023/10/13 10:25:35;;;;;;;19.05;10.15;;;;;;;23.74;55.53;99862.25;4365484;32;34588;-74
2023/10/13 10:28:05;;;;;;;21.05;8.88;;;;;;;23.99;54.96;99865.41;4365999;32;34230;-70
2023/10/13 10:30:35;;;;;;;17.35;8.95;;;;;;;23.87;54.50;99859.62;4364936;32;35314;-72
2023/10/13 10:33:08;;;;;;;14.77;9.75;;;;;;;24.09;54.28;99852.22;4356036;32;33080;-71
2023/10/13 10:35:37;;;;;;;15.20;9.50;;;;;;;24.50;53.66;99850.63;4365856;32;34634;-72
2023/10/13 10:38:11;;;;;;;21.00;10.32;;;;;;;24.50;53.53;99848.72;4366637;32;32745;-71
2023/10/13 10:40:58;;;;;;;23.77;9.93;;;;;;;24.79;53.05;99844.00;4365041;32;32840;-71
2023/10/13 10:43:42;;;;;;;14.98;7.85;;;;;;;24.85;52.45;99834.97;4367444;32;34466;-70
2023/10/13 10:46:11;;;;;;;19.73;10.23;;;;;;;24.62;52.64;99833.41;4363106;32;35026;-71
2023/10/13 10:48:43;;;;;;;18.50;9.35;;;;;;;24.85;51.50;99818.56;4367066;32;34206;-71
2023/10/13 10:51:21;;;;;;;19.67;7.68;;;;;;;24.78;52.28;99829.47;4320212;33;33996;-75
2023/10/13 10:53:51;;;;;;;17.60;9.55;;;;;;;25.60;50.47;99822.06;4319938;33;32240;-73
2023/10/13 10:56:24;;;;;;;14.63;6.85;;;;;;;25.59;49.07;99822.28;4307585;33;33768;-73
2023/10/13 10:58:56;;;;;;;19.70;9.70;;;;;;;25.71;49.45;99815.94;4279004;33;32428;-72
2023/10/13 11:01:33;;;;;;;18.67;10.30;;;;;;;25.37;50.26;99817.00;4259303;33;33256;-73
2023/10/13 11:04:18;;;;;;;19.00;10.18;;;;;;;25.24;50.32;99817.81;4250101;33;34381;-73
2023/10/13 11:06:56;;;;;;;18.00;9.23;;;;;;;25.51;49.47;99821.41;4250440;33;33224;-74
2023/10/13 11:09:37;;;;;;;17.10;8.50;;;;;;;25.78;49.28;99819.53;4268713;33;35322;-72
2023/10/13 11:12:14;;;;;;;11.23;6.40;;;;;;;25.63;49.37;99812.59;4268328;33;34980;-75
2023/10/13 11:14:48;;;;;;;20.05;9.98;;;;;;;26.21;48.33;99810.84;4264863;33;33222;-73
2023/10/13 11:17:26;;;;;;;17.65;7.85;;;;;;;26.43;47.89;99813.31;4268740;33;34006;-73
2023/10/13 11:19:55;;;;;;;16.30;8.32;;;;;;;26.23;48.24;99806.00;4268034;33;33912;-74
2023/10/13 11:22:31;;;;;;;15.25;8.93;;;;;;;26.58;47.26;99802.09;4268466;33;33908;-72
2023/10/13 11:25:09;;;;;;;23.00;10.85;;;;;;;26.06;47.49;99799.28;4258537;33;33388;-73
2023/10/13 11:30:14;;;;;;;14.70;7.00;;;;;;;26.10;48.28;99795.06;4314652;33;33743;-74
2023/10/13 11:32:42;;;;;;;11.80;6.32;;;;;;;26.31;48.51;99793.09;4282194;33;33342;-74
2023/10/13 11:35:20;;;;;;;7.80;5.18;;;;;;;26.08;47.35;99790.84;4289332;33;34089;-75
2023/10/13 11:40:43;;;;;;;14.30;5.90;;;;;;;25.88;46.41;99782.66;4321867;33;33614;-72
2023/10/13 11:43:21;;;;;;;12.15;5.90;;;;;;;25.87;44.40;99787.28;4334298;32;33510;-74
2023/10/13 11:46:00;;;;;;;18.48;5.62;;;;;;;26.29;44.93;99782.31;4337157;33;34595;-74
2023/10/13 11:48:36;;;;;;;12.88;6.72;;;;;;;26.21;44.75;99783.41;4321373;32;33906;-74
2023/10/13 11:51:07;;;;;;;13.30;5.20;;;;;;;26.66;41.68;99783.47;4337924;32;34387;-74
2023/10/13 11:53:35;;;;;;;13.60;6.32;;;;;;;26.44;40.10;99784.81;4309036;33;35091;-74
2023/10/13 11:56:08;;;;;;;11.73;4.70;;;;;;;26.79;39.80;99787.22;4323460;32;32387;-73
2023/10/13 11:58:37;;;;;;;12.32;6.18;;;;;;;27.08;39.08;99772.87;4346583;32;33329;-73
2023/10/13 12:11:50;;;;;;;11.38;5.28;;;;;;;26.66;38.58;99769.75;4355399;32;35308;-70
2023/10/13 12:14:27;;;;;;;13.18;5.18;;;;;;;26.70;39.35;99762.75;4352042;32;34484;-69
2023/10/13 12:16:55;;;;;;;14.05;5.68;;;;;;;27.39;37.87;99765.72;4345826;32;34132;-70
2023/10/13 12:19:24;;;;;;;14.38;4.87;;;;;;;27.32;38.28;99765.78;4365601;32;33802;-69
2023/10/13 12:21:55;;;;;;;12.50;4.95;;;;;;;27.45;37.97;99769.47;4373095;32;34940;-71
2023/10/13 12:27:18;;;;;;;8.82;4.37;;;;;;;27.48;37.72;99761.62;4375993;32;33517;-70
2023/10/13 12:29:47;;;;;;;19.08;4.50;;;;;;;27.19;37.44;99763.09;4363545;32;33790;-70
2023/10/13 12:32:20;;;;;;;16.77;5.45;;;;;;;27.27;36.88;99754.59;4371431;32;35474;-71
2023/10/13 12:37:49;;;;;;;14.77;5.57;;;;;;;27.11;38.54;99757.87;4313113;33;33449;-71
2023/10/13 12:49:04;;;;;;;11.82;5.15;;;;;;;28.05;37.40;99745.00;4306353;33;33305;-70
2023/10/13 12:54:23;;;;;;;17.95;5.10;;;;;;;27.32;37.85;99740.19;4308023;33;32435;-71
2023/10/13 12:56:56;;;;;;;15.50;5.85;;;;;;;27.59;37.50;99729.81;4309590;33;34887;-70
2023/10/13 12:59:27;;;;;;;14.17;5.33;;;;;;;27.34;37.12;99729.81;4313523;33;32817;-71
2023/10/13 13:01:55;;;;;;;13.00;5.07;;;;;;;27.39;37.27;99730.00;4326003;33;33487;-70
2023/10/13 13:04:31;;;;;;;12.23;4.78;;;;;;;27.79;36.41;99721.38;4323133;33;33230;-70
2023/10/13 13:06:59;;;;;;;12.35;4.82;;;;;;;27.70;37.70;99714.47;4310408;33;33880;-70
2023/10/13 13:09:27;;;;;;;13.10;5.68;;;;;;;27.70;36.45;99717.22;4316542;33;33168;-70
2023/10/13 13:11:57;;;;;;;14.20;6.00;;;;;;;27.73;36.99;99712.09;4324109;33;35011;-70
2023/10/13 13:14:29;;;;;;;13.93;5.95;;;;;;;27.67;37.36;99714.91;4336324;32;34376;-69
2023/10/13 13:17:04;;;;;;;14.15;5.47;;;;;;;27.42;37.59;99710.31;4370299;32;34769;-69
2023/10/13 13:19:38;;;;;;;10.30;4.95;;;;;;;27.40;36.95;99716.00;4368702;32;33214;-70
2023/10/13 13:22:13;;;;;;;15.47;5.13;;;;;;;27.32;37.03;99719.06;4364571;32;33552;-69
2023/10/13 13:24:45;;;;;;;15.82;5.15;;;;;;;28.16;36.40;99700.25;4370533;32;34175;-70
2023/10/13 13:27:14;;;;;;;19.08;5.25;;;;;;;27.71;37.71;99697.75;4368162;32;34287;-69
2023/10/13 13:29:42;;;;;;;11.38;5.20;;;;;;;26.95;38.72;99707.06;4368505;32;34807;-70
2023/10/13 13:32:23;;;;;;;13.93;6.20;;;;;;;27.56;38.39;99708.28;4368010;32;34020;-69
2023/10/13 13:34:58;;;;;;;18.25;5.68;;;;;;;28.12;37.59;99714.66;4367364;32;34048;-69
2023/10/13 13:37:27;;;;;;;12.50;5.40;;;;;;;28.34;36.52;99708.44;4363239;32;33386;-69
2023/10/13 13:39:55;;;;;;;8.88;4.50;;;;;;;28.24;36.10;99712.84;4368899;32;33405;-69
2023/10/13 13:42:23;;;;;;;11.32;4.35;;;;;;;28.20;36.63;99708.88;4327669;33;33906;-71
2023/10/13 13:44:51;;;;;;;17.37;5.82;;;;;;;28.21;34.80;99713.28;4329282;33;34881;-71
2023/10/13 13:47:19;;;;;;;12.55;4.65;;;;;;;28.16;35.40;99713.16;4319340;33;34871;-70
2023/10/13 13:49:51;;;;;;;14.82;4.65;;;;;;;28.15;35.14;99708.72;4321759;33;34021;-71
2023/10/13 13:52:33;;;;;;;13.18;5.00;;;;;;;28.26;35.60;99706.03;4324167;33;33610;-69
2023/10/13 13:55:05;;;;;;;13.50;4.72;;;;;;;28.29;34.85;99704.72;4329818;33;33749;-70
2023/10/13 13:57:35;;;;;;;13.27;5.47;;;;;;;28.38;34.59;99702.47;4330724;33;33487;-70
2023/10/13 14:00:06;;;;;;;13.07;5.20;;;;;;;28.36;34.87;99699.13;4328694;33;32400;-70
2023/10/13 14:02:35;;;;;;;18.87;5.35;;;;;;;27.83;36.08;99708.84;4304776;33;35041;-70
2023/10/13 14:05:04;;;;;;;9.93;4.40;;;;;;;27.99;35.48;99697.25;4313957;33;35683;-71
2023/10/13 14:07:32;;;;;;;18.02;4.40;;;;;;;28.18;35.29;99694.50;4313918;33;33236;-70
2023/10/13 14:10:06;;;;;;;13.55;5.80;;;;;;;28.32;34.79;99696.84;4311441;33;33029;-70
2023/10/13 14:12:41;;;;;;;11.30;5.47;;;;;;;28.30;34.99;99689.88;4308182;32;35242;-70
2023/10/13 14:15:19;;;;;;;12.63;4.97;;;;;;;28.33;35.00;99686.69;4346019;32;34920;-70
2023/10/13 14:17:49;;;;;;;11.50;4.37;;;;;;;28.45;35.35;99686.78;4347723;32;34876;-69
2023/10/13 14:20:20;;;;;;;8.40;4.20;;;;;;;28.45;35.76;99684.03;4349049;32;33669;-70
2023/10/13 14:22:48;;;;;;;15.00;4.87;;;;;;;27.69;36.33;99682.56;4334365;32;34770;-69
2023/10/13 14:25:16;;;;;;;14.25;4.75;;;;;;;28.04;36.37;99678.16;4336203;32;33823;-71
2023/10/13 14:27:45;;;;;;;12.63;5.37;;;;;;;27.71;36.57;99684.00;4347298;32;33984;-72
2023/10/13 14:30:19;;;;;;;11.12;4.40;;;;;;;27.85;35.90;99670.97;4350341;32;33144;-70
2023/10/13 14:32:47;;;;;;;11.07;4.80;;;;;;;28.05;35.47;99677.06;4350594;32;34117;-71
2023/10/13 14:35:15;;;;;;;12.80;4.95;;;;;;;27.71;36.17;99675.75;4364940;32;33895;-70
2023/10/13 14:37:43;;;;;;;12.30;4.53;;;;;;;27.75;36.28;99671.47;4352454;32;33777;-70
2023/10/13 14:40:12;;;;;;;13.43;5.03;;;;;;;27.86;35.93;99673.50;4363961;32;32914;-71
2023/10/13 14:42:40;;;;;;;13.40;5.72;;;;;;;27.67;36.23;99671.75;4365386;32;34628;-71
2023/10/13 14:45:16;;;;;;;13.57;5.45;;;;;;;27.67;36.26;99669.00;4365933;32;34106;-71
2023/10/13 14:47:44;;;;;;;11.52;4.80;;;;;;;27.69;36.42;99671.56;4375161;32;33331;-71
2023/10/13 14:50:21;;;;;;;8.68;4.43;;;;;;;27.83;36.33;99659.34;4372357;32;33170;-71
2023/10/13 14:52:50;;;;;;;18.50;5.65;;;;;;;28.06;36.28;99659.50;4374566;32;33767;-71
2023/10/13 14:55:21;;;;;;;15.52;5.00;;;;;;;27.89;36.51;99655.69;4373124;32;34274;-71
2023/10/13 14:57:52;;;;;;;12.15;4.97;;;;;;;27.85;36.42;99652.56;4372607;32;34310;-71
2023/10/13 15:00:26;;;;;;;12.45;5.25;;;;;;;27.90;36.08;99656.53;4377356;32;34132;-72
2023/10/13 15:02:54;;;;;;;14.70;5.00;;;;;;;27.40;36.07;99662.97;4369416;32;131735;-71
2023/10/13 15:05:23;;;;;;;10.57;4.72;;;;;;;27.69;36.43;99661.41;4360751;32;34626;-71
2023/10/13 15:07:51;;;;;;;13.00;4.90;;;;;;;27.92;35.85;99655.22;4376421;32;34020;-71
2023/10/13 15:10:19;;;;;;;14.18;5.93;;;;;;;27.92;35.80;99655.22;4370028;32;34432;-71
2023/10/13 15:12:48;;;;;;;15.27;5.35;;;;;;;27.91;35.92;99659.06;4375352;32;33768;-71
2023/10/13 15:15:16;;;;;;;14.00;5.47;;;;;;;27.80;36.09;99651.56;4379767;32;35002;-71
2023/10/13 15:17:43;;;;;;;12.50;5.53;;;;;;;27.81;36.06;99664.25;4376327;32;33197;-71
2023/10/13 15:20:18;;;;;;;16.02;5.37;;;;;;;27.79;35.56;99656.22;4376733;32;33521;-71
2023/10/13 15:22:49;;;;;;;13.27;7.07;;;;;;;27.85;35.87;99659.97;4372164;32;32523;-72
2023/10/13 15:25:20;;;;;;;17.58;9.77;;;;;;;27.83;36.40;99660.22;4374260;32;35342;-71